Time;durP1;ratioP1;P1;durP2;ratioP2;P2;SDS_P1;SDS_P2;PMS_P1;PMS_P2;Temp;Humidity;BMP_temperature;BMP_pressure;BME280_temperature;BME280_humidity;BME280_pressure;Samples;Min_cycle;Max_cycle;Signal;HPM_P1;HPM_P2
2023/06/10 00:02:07;;;;;;;7.50;6.80;;;26.70;41.30;;;;;;5009516;28;20575;-48
2023/06/10 00:04:33;;;;;;;7.67;6.97;;;26.70;41.20;;;;;;5002447;28;20523;-50
2023/06/10 00:06:59;;;;;;;7.97;7.43;;;26.70;41.30;;;;;;5007256;28;20244;-47
2023/06/10 00:09:25;;;;;;;8.50;7.70;;;26.70;41.00;;;;;;5003372;28;20198;-48
2023/06/10 00:11:51;;;;;;;7.63;7.03;;;26.60;41.00;;;;;;5004857;28;20209;-50
2023/06/10 00:14:16;;;;;;;7.00;6.40;;;26.50;40.90;;;;;;5000476;28;20465;-52
2023/06/10 00:16:44;;;;;;;6.30;5.80;;;26.50;41.10;;;;;;5010371;28;20194;-50
2023/06/10 00:19:13;;;;;;;7.80;7.20;;;26.50;41.40;;;;;;5003165;28;20190;-47
2023/06/10 00:21:39;;;;;;;7.30;6.70;;;26.50;41.30;;;;;;5004477;28;21564;-52
2023/06/10 00:24:12;;;;;;;7.50;6.90;;;26.50;41.30;;;;;;5001012;28;20592;-50
2023/06/10 00:26:41;;;;;;;7.67;7.07;;;26.40;41.20;;;;;;5003045;28;20440;-47
2023/06/10 00:29:07;;;;;;;7.30;6.80;;;26.40;41.40;;;;;;5001779;28;20470;-47
2023/06/10 00:31:34;;;;;;;8.03;7.23;;;26.40;41.50;;;;;;5007595;28;20512;-50
2023/06/10 00:34:00;;;;;;;8.30;7.60;;;26.40;41.30;;;;;;5001120;28;21733;-49
2023/06/10 00:36:26;;;;;;;7.87;7.33;;;26.40;41.30;;;;;;4989697;28;20532;-48
2023/06/10 00:38:52;;;;;;;8.73;6.63;;;26.40;41.40;;;;;;4999633;28;20214;-47
2023/06/10 00:41:18;;;;;;;8.40;7.80;;;26.30;41.40;;;;;;5000835;28;21472;-47
2023/06/10 00:43:44;;;;;;;7.70;7.17;;;26.30;41.40;;;;;;5001004;28;20631;-52
2023/06/10 00:46:11;;;;;;;7.63;6.93;;;26.30;41.50;;;;;;5004517;28;20608;-48
2023/06/10 00:48:38;;;;;;;8.10;7.50;;;26.30;41.50;;;;;;5002847;28;20194;-50
2023/06/10 00:51:05;;;;;;;8.17;7.37;;;26.30;41.60;;;;;;5001791;28;20449;-47
2023/06/10 00:53:32;;;;;;;8.13;7.53;;;26.20;41.70;;;;;;5008979;28;20447;-47
2023/06/10 00:55:58;;;;;;;7.60;7.10;;;26.20;41.70;;;;;;5002156;28;20491;-48
2023/06/10 00:58:25;;;;;;;8.13;7.33;;;26.10;42.00;;;;;;4996348;28;20473;-49
2023/06/10 01:00:51;;;;;;;7.00;6.37;;;26.10;41.90;;;;;;5005830;28;20509;-50
2023/06/10 01:03:18;;;;;;;8.07;7.47;;;26.10;42.00;;;;;;4996279;28;20446;-47
2023/06/10 01:05:49;;;;;;;7.93;7.37;;;26.10;42.10;;;;;;5003167;28;20444;-47
2023/06/10 01:08:41;;;;;;;7.40;6.73;;;26.10;42.00;;;;;;5002200;28;20487;-48
2023/06/10 01:11:13;;;;;;;7.77;7.17;;;26.10;42.20;;;;;;5001075;28;20540;-51
2023/06/10 01:13:41;;;;;;;8.10;7.50;;;26.00;42.20;;;;;;5004075;28;20444;-47
2023/06/10 01:16:06;;;;;;;7.13;6.63;;;26.00;42.20;;;;;;5002460;28;20436;-47
2023/06/10 01:18:32;;;;;;;7.43;6.80;;;26.00;42.50;;;;;;5009455;28;20487;-47
2023/06/10 01:20:58;;;;;;;7.00;6.47;;;25.90;42.40;;;;;;5011637;28;20253;-47
2023/06/10 01:23:24;;;;;;;8.40;7.70;;;25.90;42.50;;;;;;4998889;28;20612;-48
2023/06/10 01:26:11;;;;;;;6.63;6.13;;;25.90;42.60;;;;;;5005610;28;20198;-47
2023/06/10 01:28:46;;;;;;;7.87;7.17;;;25.90;42.50;;;;;;5000762;28;20232;-47
2023/06/10 01:31:41;;;;;;;7.70;7.10;;;25.90;42.50;;;;;;4997921;28;20903;-47
2023/06/10 01:34:10;;;;;;;7.60;6.90;;;25.80;42.60;;;;;;5004622;28;20453;-47
2023/06/10 01:36:37;;;;;;;6.70;6.17;;;25.80;42.50;;;;;;5005631;28;20433;-48
2023/06/10 01:39:05;;;;;;;7.30;6.80;;;25.70;42.70;;;;;;5001157;28;20447;-48
2023/06/10 01:41:31;;;;;;;8.10;7.40;;;25.70;42.80;;;;;;5007012;28;20488;-48
2023/06/10 01:43:57;;;;;;;6.60;6.10;;;25.70;42.80;;;;;;5002585;28;20667;-49
2023/06/10 01:46:22;;;;;;;6.57;6.17;;;25.50;43.80;;;;;;5007577;28;20543;-47
2023/06/10 01:48:48;;;;;;;7.13;6.53;;;25.70;43.40;;;;;;5007886;28;20204;-47
2023/06/10 01:51:14;;;;;;;7.40;6.80;;;25.80;43.00;;;;;;5005340;28;20556;-48
2023/06/10 01:53:40;;;;;;;6.97;6.47;;;25.80;42.90;;;;;;5007064;28;20243;-48
2023/06/10 01:56:06;;;;;;;7.80;7.20;;;25.80;42.80;;;;;;5009433;28;20816;-47
2023/06/10 01:58:31;;;;;;;7.87;7.17;;;25.80;42.60;;;;;;5003907;28;20194;-48
2023/06/10 02:00:57;;;;;;;7.00;6.50;;;25.80;42.50;;;;;;5002185;28;20245;-51
2023/06/10 02:03:22;;;;;;;7.70;7.10;;;25.80;42.40;;;;;;5011049;28;20234;-47
2023/06/10 02:05:48;;;;;;;6.83;6.23;;;25.80;42.40;;;;;;5006758;28;20649;-51
2023/06/10 02:08:14;;;;;;;8.00;7.40;;;25.70;42.40;;;;;;5001317;28;20197;-49
2023/06/10 02:10:40;;;;;;;6.43;5.93;;;25.70;42.50;;;;;;5001289;28;20448;-47
2023/06/10 02:13:06;;;;;;;7.70;6.43;;;25.70;42.40;;;;;;4999905;28;20309;-47
2023/06/10 02:15:31;;;;;;;6.60;6.07;;;25.60;43.30;;;;;;4999089;28;20575;-48
2023/06/10 02:17:57;;;;;;;6.60;6.10;;;25.60;43.10;;;;;;4999603;28;20206;-52
2023/06/10 02:20:23;;;;;;;7.63;7.03;;;25.60;43.40;;;;;;5002138;28;20285;-48
2023/06/10 02:22:49;;;;;;;7.37;6.67;;;25.60;43.30;;;;;;4997880;28;20209;-51
2023/06/10 02:25:14;;;;;;;19.17;6.70;;;25.60;43.10;;;;;;5001331;28;20704;-52
2023/06/10 02:27:40;;;;;;;7.50;6.80;;;25.60;43.10;;;;;;5000285;28;20277;-51
2023/06/10 02:30:06;;;;;;;7.13;6.43;;;25.60;43.30;;;;;;5003201;28;20201;-52
2023/06/10 02:32:31;;;;;;;6.93;6.23;;;25.60;43.20;;;;;;5000421;28;20197;-51
2023/06/10 02:34:57;;;;;;;7.20;6.60;;;25.60;43.40;;;;;;4998551;28;20448;-52
2023/06/10 02:37:23;;;;;;;7.00;6.20;;;25.60;43.40;;;;;;5001643;28;20193;-50
2023/06/10 02:39:49;;;;;;;6.70;6.20;;;25.50;43.40;;;;;;4998279;28;20260;-53
2023/06/10 02:42:14;;;;;;;7.00;6.40;;;25.50;43.40;;;;;;5005471;28;20221;-53
2023/06/10 02:44:40;;;;;;;6.87;5.60;;;25.60;43.40;;;;;;5002556;28;20198;-49
2023/06/10 02:47:06;;;;;;;6.50;6.00;;;25.60;43.50;;;;;;5001006;28;20193;-52
2023/06/10 02:49:31;;;;;;;6.03;5.57;;;25.60;43.60;;;;;;5003108;28;20191;-50
2023/06/10 02:51:57;;;;;;;7.03;6.43;;;25.60;43.60;;;;;;4996284;28;20191;-50
2023/06/10 02:54:25;;;;;;;6.20;5.70;;;25.60;43.60;;;;;;5007673;28;20263;-53
2023/06/10 02:56:52;;;;;;;6.70;6.30;;;25.60;43.50;;;;;;5010009;28;20285;-51
2023/06/10 02:59:17;;;;;;;7.27;6.57;;;25.60;43.60;;;;;;5007716;28;20479;-52
2023/06/10 03:01:43;;;;;;;6.90;6.33;;;25.60;43.40;;;;;;5000978;28;20481;-52
2023/06/10 03:04:09;;;;;;;6.53;6.03;;;25.50;43.50;;;;;;5010064;28;20186;-50
2023/06/10 03:06:35;;;;;;;7.30;6.33;;;25.50;43.40;;;;;;5001799;28;20194;-52
2023/06/10 03:09:01;;;;;;;6.40;5.90;;;25.50;43.60;;;;;;5006961;28;20201;-52
2023/06/10 03:11:27;;;;;;;7.67;7.07;;;25.50;43.60;;;;;;5006927;28;20502;-53
2023/06/10 03:13:55;;;;;;;7.60;6.77;;;25.50;43.50;;;;;;4998893;28;20452;-50
2023/06/10 03:16:21;;;;;;;6.67;6.17;;;25.50;43.60;;;;;;4995667;28;20288;-51
2023/06/10 03:18:46;;;;;;;6.50;6.00;;;25.50;43.50;;;;;;5009540;28;20484;-49
2023/06/10 03:21:12;;;;;;;6.90;6.30;;;25.40;43.60;;;;;;5004056;28;20232;-52
2023/06/10 03:23:38;;;;;;;6.30;5.80;;;25.40;43.60;;;;;;4999938;28;20277;-52
2023/06/10 03:26:04;;;;;;;6.90;6.40;;;25.40;43.70;;;;;;5006512;28;20198;-51
2023/06/10 03:28:30;;;;;;;6.90;6.40;;;25.40;43.70;;;;;;5002694;28;20209;-49
2023/06/10 03:30:56;;;;;;;7.23;6.57;;;25.40;43.70;;;;;;5011624;28;20440;-50
2023/06/10 03:33:22;;;;;;;7.53;6.93;;;25.40;43.90;;;;;;5012881;28;20531;-50
2023/06/10 03:35:48;;;;;;;6.60;6.10;;;25.30;43.80;;;;;;5012492;28;20202;-52
2023/06/10 03:38:13;;;;;;;7.03;6.40;;;25.30;43.80;;;;;;5012305;28;20194;-50
2023/06/10 03:40:39;;;;;;;6.63;6.13;;;25.40;43.90;;;;;;5016696;28;20564;-54
2023/06/10 03:43:04;;;;;;;6.87;6.27;;;25.40;44.50;;;;;;5002383;28;20225;-52
2023/06/10 03:45:30;;;;;;;6.40;6.00;;;25.30;43.80;;;;;;5005287;28;20194;-51
2023/06/10 03:47:56;;;;;;;7.20;6.50;;;25.30;43.90;;;;;;5005149;28;20194;-52
2023/06/10 03:50:23;;;;;;;6.97;6.40;;;25.30;43.80;;;;;;5011098;28;20257;-52
2023/06/10 03:52:48;;;;;;;6.87;6.30;;;25.30;43.90;;;;;;5009238;28;20198;-52
2023/06/10 03:55:16;;;;;;;7.07;6.57;;;25.30;43.90;;;;;;5010693;28;20445;-53
2023/06/10 03:57:42;;;;;;;6.80;6.30;;;25.30;43.90;;;;;;5003400;28;20614;-52
2023/06/10 04:00:12;;;;;;;6.27;5.87;;;25.20;43.90;;;;;;5003395;28;20599;-52
2023/06/10 04:02:45;;;;;;;6.50;6.00;;;25.30;44.10;;;;;;5003321;28;20325;-51
2023/06/10 04:05:12;;;;;;;6.70;6.20;;;25.30;43.90;;;;;;5005311;28;20559;-54
2023/06/10 04:07:40;;;;;;;6.77;6.27;;;25.30;44.10;;;;;;5002853;28;20884;-51
2023/06/10 04:10:06;;;;;;;8.77;6.57;;;25.30;44.10;;;;;;5007588;28;20481;-47
2023/06/10 04:12:32;;;;;;;6.70;6.20;;;25.30;44.20;;;;;;5009896;28;20447;-47
2023/06/10 04:14:58;;;;;;;9.93;6.53;;;25.30;44.30;;;;;;5004542;28;20444;-51
2023/06/10 04:17:24;;;;;;;6.80;6.20;;;25.30;44.30;;;;;;5004367;28;20202;-52
2023/06/10 04:19:50;;;;;;;6.73;6.23;;;25.30;44.30;;;;;;5008750;28;20194;-47
2023/06/10 04:22:16;;;;;;;12.20;6.10;;;25.30;44.30;;;;;;5013728;28;20293;-48
2023/06/10 04:24:42;;;;;;;7.00;6.50;;;25.30;44.40;;;;;;5004777;28;20437;-53
2023/06/10 04:27:08;;;;;;;6.67;6.27;;;25.30;44.40;;;;;;5000766;28;20804;-50
2023/06/10 04:29:34;;;;;;;6.57;6.07;;;25.30;44.30;;;;;;5013449;28;20444;-47
2023/06/10 04:32:01;;;;;;;6.10;5.60;;;25.30;44.30;;;;;;5013619;28;20194;-50
2023/06/10 04:34:27;;;;;;;7.40;6.73;;;25.30;44.30;;;;;;5012947;28;20194;-49
2023/06/10 04:36:53;;;;;;;6.47;5.97;;;25.30;44.30;;;;;;5007793;28;20449;-49
2023/06/10 04:39:19;;;;;;;6.37;5.90;;;25.30;44.30;;;;;;5004349;28;20269;-52
2023/06/10 04:41:45;;;;;;;7.57;6.87;;;25.40;44.40;;;;;;5009009;28;20259;-48
2023/06/10 04:44:11;;;;;;;7.27;6.17;;;25.40;44.40;;;;;;5010254;28;20942;-48
2023/06/10 04:46:37;;;;;;;6.60;6.00;;;25.30;44.40;;;;;;5006940;28;20605;-50
2023/06/10 04:49:02;;;;;;;7.83;6.80;;;25.40;44.50;;;;;;5009152;28;20217;-52
2023/06/10 04:51:28;;;;;;;7.10;6.57;;;25.40;44.50;;;;;;5004782;28;20221;-47
2023/06/10 04:53:54;;;;;;;7.50;6.90;;;25.40;44.50;;;;;;5013985;28;20198;-47
2023/06/10 04:56:20;;;;;;;6.83;6.33;;;25.40;44.60;;;;;;5008164;28;20677;-46
2023/06/10 04:58:45;;;;;;;6.67;6.07;;;25.40;44.50;;;;;;5010043;28;20190;-51
2023/06/10 05:01:11;;;;;;;7.17;6.47;;;25.40;44.40;;;;;;5005172;28;20501;-52
2023/06/10 05:03:36;;;;;;;6.63;6.13;;;25.40;44.50;;;;;;5004244;28;20200;-49
2023/06/10 05:06:02;;;;;;;8.23;5.80;;;25.40;44.80;;;;;;5010294;28;20201;-47
2023/06/10 05:08:28;;;;;;;7.07;6.57;;;25.30;45.00;;;;;;4998750;28;20206;-54
2023/06/10 05:10:53;;;;;;;6.27;5.77;;;25.40;45.00;;;;;;5003154;28;20198;-52
2023/06/10 05:13:19;;;;;;;7.33;6.73;;;25.30;45.10;;;;;;5006092;28;20208;-51
2023/06/10 05:15:45;;;;;;;6.97;6.27;;;25.40;45.00;;;;;;5010018;28;20246;-51
2023/06/10 05:18:12;;;;;;;6.87;6.17;;;25.60;44.70;;;;;;5003232;28;20623;-47
2023/06/10 05:20:38;;;;;;;7.33;5.90;;;25.70;44.50;;;;;;5008818;28;20441;-48
2023/06/10 05:23:03;;;;;;;6.00;5.60;;;25.80;44.40;;;;;;5003247;28;20441;-51
2023/06/10 05:25:33;;;;;;;6.37;5.90;;;25.80;44.20;;;;;;5005325;28;20308;-48
2023/06/10 05:27:59;;;;;;;5.93;5.53;;;25.90;44.20;;;;;;5000124;28;20229;-53
2023/06/10 05:30:25;;;;;;;7.20;6.60;;;25.90;44.30;;;;;;5000935;28;20536;-48
2023/06/10 05:32:52;;;;;;;8.07;7.00;;;25.90;44.30;;;;;;5011794;28;20455;-50
2023/06/10 05:35:18;;;;;;;7.80;7.20;;;25.90;44.50;;;;;;5007355;28;20548;-48
2023/06/10 05:37:44;;;;;;;7.80;7.30;;;25.90;44.70;;;;;;5010890;28;20483;-49
2023/06/10 05:40:10;;;;;;;7.33;6.63;;;25.80;45.00;;;;;;5002373;28;20314;-50
2023/06/10 05:42:36;;;;;;;7.47;6.77;;;25.70;45.30;;;;;;5009022;28;20226;-47
2023/06/10 05:45:02;;;;;;;8.03;7.43;;;25.60;45.40;;;;;;5006477;28;20809;-50
2023/06/10 05:47:28;;;;;;;7.30;6.60;;;25.60;45.40;;;;;;5009223;28;20332;-48
2023/06/10 05:49:54;;;;;;;8.23;7.63;;;25.50;45.50;;;;;;5011346;28;20960;-46
2023/06/10 05:52:19;;;;;;;7.47;6.87;;;25.50;45.50;;;;;;5011079;28;20190;-46
2023/06/10 05:54:45;;;;;;;6.93;6.27;;;25.50;45.90;;;;;;5015396;28;20193;-47
2023/06/10 05:57:11;;;;;;;6.90;6.33;;;25.40;46.40;;;;;;5011000;28;20218;-52
2023/06/10 05:59:36;;;;;;;6.70;6.10;;;25.50;46.40;;;;;;5008462;28;20194;-46
2023/06/10 06:02:02;;;;;;;7.03;6.43;;;25.40;46.80;;;;;;5009949;28;20241;-48
2023/06/10 06:04:28;;;;;;;6.23;5.73;;;25.50;46.60;;;;;;5011683;28;20229;-50
2023/06/10 06:06:54;;;;;;;6.90;6.40;;;25.60;47.10;;;;;;5014725;28;20444;-47
2023/06/10 06:09:19;;;;;;;7.07;6.47;;;25.60;46.90;;;;;;5010690;28;20285;-48
2023/06/10 06:11:45;;;;;;;6.27;5.67;;;25.70;47.30;;;;;;5008766;28;20197;-47
2023/06/10 06:14:11;;;;;;;6.37;5.83;;;25.80;48.10;;;;;;5006894;28;20190;-49
2023/06/10 06:16:36;;;;;;;7.50;5.93;;;25.90;47.20;;;;;;5006124;28;20244;-47
2023/06/10 06:19:02;;;;;;;6.00;5.60;;;25.90;47.30;;;;;;5006508;28;20194;-50
2023/06/10 06:21:27;;;;;;;5.90;5.50;;;25.90;47.10;;;;;;4992460;28;20264;-48
2023/06/10 06:23:53;;;;;;;6.20;5.70;;;26.00;46.90;;;;;;4992566;28;20186;-47
2023/06/10 06:26:19;;;;;;;6.27;5.67;;;26.10;46.80;;;;;;4992113;28;20274;-46
2023/06/10 06:28:44;;;;;;;6.30;5.80;;;26.20;46.90;;;;;;5004552;28;20204;-47
2023/06/10 06:31:10;;;;;;;6.00;5.50;;;26.30;46.40;;;;;;5010787;28;20564;-50
2023/06/10 06:33:36;;;;;;;5.87;5.47;;;26.40;46.30;;;;;;4993773;28;20186;-47
2023/06/10 06:36:02;;;;;;;6.50;6.00;;;26.50;46.30;;;;;;4992312;28;20940;-46
2023/06/10 06:38:27;;;;;;;7.00;6.40;;;26.60;46.30;;;;;;4991880;28;20206;-48
2023/06/10 06:40:54;;;;;;;6.23;5.63;;;26.80;45.80;;;;;;4990889;28;20669;-46
2023/06/10 06:43:19;;;;;;;7.20;6.60;;;26.90;45.40;;;;;;5001688;28;20203;-47
2023/06/10 06:45:45;;;;;;;7.63;6.93;;;27.00;45.30;;;;;;4999760;28;20938;-47
2023/06/10 06:48:11;;;;;;;6.03;5.53;;;27.00;45.40;;;;;;4996844;28;20195;-46
2023/06/10 06:50:37;;;;;;;6.13;5.63;;;27.10;45.30;;;;;;4992333;28;20638;-46
2023/06/10 06:53:03;;;;;;;5.70;5.30;;;27.20;45.50;;;;;;4996709;28;20596;-46
2023/06/10 06:55:29;;;;;;;5.40;5.00;;;27.20;45.70;;;;;;5004667;28;20201;-47
2023/06/10 06:57:55;;;;;;;5.80;5.40;;;27.30;45.30;;;;;;5010937;28;20425;-46
2023/06/10 07:00:21;;;;;;;5.97;5.53;;;27.40;44.80;;;;;;5011562;28;20213;-46
2023/06/10 07:02:47;;;;;;;6.23;5.77;;;27.50;44.90;;;;;;5012232;28;21145;-47
2023/06/10 07:05:13;;;;;;;6.43;5.90;;;27.50;45.00;;;;;;5010844;28;20289;-47
2023/06/10 07:07:38;;;;;;;5.87;5.37;;;27.70;45.10;;;;;;5008571;28;20198;-47
2023/06/10 07:10:04;;;;;;;17.53;6.50;;;27.90;44.40;;;;;;4999637;28;20198;-47
2023/06/10 07:12:30;;;;;;;8.60;6.30;;;28.00;44.20;;;;;;4992009;28;20198;-51
2023/06/10 07:14:55;;;;;;;5.93;5.47;;;28.10;43.90;;;;;;4992269;28;20512;-47
2023/06/10 07:17:21;;;;;;;5.67;5.10;;;28.30;43.60;;;;;;4991256;28;20194;-46
2023/06/10 07:19:46;;;;;;;7.73;5.73;;;28.40;43.60;;;;;;5007352;28;20190;-47
2023/06/10 07:22:12;;;;;;;5.37;4.87;;;28.50;43.80;;;;;;5009321;28;20300;-47
2023/06/10 07:24:38;;;;;;;5.87;5.47;;;28.60;43.50;;;;;;5013095;28;20204;-47
2023/06/10 07:27:03;;;;;;;6.03;5.53;;;28.70;43.90;;;;;;5009344;28;20190;-47
2023/06/10 07:29:29;;;;;;;6.03;5.63;;;28.80;43.80;;;;;;5004626;28;20209;-48
2023/06/10 07:31:55;;;;;;;6.10;5.60;;;28.90;43.70;;;;;;5013625;28;20235;-47
2023/06/10 07:34:20;;;;;;;5.70;5.30;;;29.00;43.70;;;;;;5007415;28;20193;-51
2023/06/10 07:36:46;;;;;;;5.90;5.30;;;29.10;43.60;;;;;;5010057;28;20985;-51
2023/06/10 07:39:11;;;;;;;5.10;4.80;;;29.20;43.20;;;;;;5010509;28;20198;-48
2023/06/10 07:41:37;;;;;;;5.70;5.20;;;29.30;42.40;;;;;;5011126;28;20221;-47
2023/06/10 07:44:03;;;;;;;5.80;5.30;;;29.50;43.10;;;;;;4990751;28;20199;-47
2023/06/10 07:46:28;;;;;;;6.70;6.10;;;29.40;41.30;;;;;;4994527;28;20650;-45
2023/06/10 07:48:54;;;;;;;6.17;5.70;;;29.30;41.20;;;;;;5010189;28;20193;-44
2023/06/10 07:51:21;;;;;;;6.03;5.43;;;29.00;41.30;;;;;;5009798;28;20202;-45
2023/06/10 07:53:47;;;;;;;5.50;5.00;;;28.80;42.20;;;;;;5007380;28;20491;-46
2023/06/10 07:56:12;;;;;;;5.67;5.23;;;29.20;41.80;;;;;;5009014;28;20897;-45
2023/06/10 07:58:38;;;;;;;7.20;5.40;;;29.40;42.00;;;;;;5010902;28;20194;-48
2023/06/10 08:01:04;;;;;;;6.40;5.37;;;29.80;41.40;;;;;;5003190;28;20252;-51
2023/06/10 08:03:29;;;;;;;5.60;5.10;;;30.10;39.90;;;;;;5004354;28;20224;-51
2023/06/10 08:05:55;;;;;;;8.43;5.60;;;29.90;39.70;;;;;;5004298;28;20633;-50
2023/06/10 08:08:21;;;;;;;5.43;5.03;;;29.60;39.90;;;;;;5007583;28;20222;-48
2023/06/10 08:10:46;;;;;;;18.87;6.27;;;29.50;40.50;;;;;;5015008;28;20189;-46
2023/06/10 08:13:12;;;;;;;8.83;6.33;;;29.30;40.40;;;;;;5016090;28;20202;-49
2023/06/10 08:15:37;;;;;;;5.90;5.50;;;29.00;40.60;;;;;;5002565;28;20253;-48
2023/06/10 08:18:03;;;;;;;6.67;6.00;;;28.60;41.20;;;;;;5005838;28;20262;-50
2023/06/10 08:20:29;;;;;;;5.43;5.00;;;28.80;41.80;;;;;;5013114;28;20297;-47
2023/06/10 08:22:54;;;;;;;5.67;5.17;;;28.80;41.80;;;;;;5014576;28;20763;-46
2023/06/10 08:25:22;;;;;;;5.70;5.30;;;29.20;41.00;;;;;;5007586;28;20253;-49
2023/06/10 08:27:47;;;;;;;5.67;5.17;;;29.30;41.10;;;;;;5008547;28;20280;-52
2023/06/10 08:30:14;;;;;;;5.50;5.10;;;29.60;40.90;;;;;;5006993;28;20872;-51
2023/06/10 08:32:39;;;;;;;5.90;5.50;;;29.90;39.80;;;;;;5005152;28;20342;-49
2023/06/10 08:35:05;;;;;;;5.17;4.80;;;30.10;38.90;;;;;;5015220;28;20453;-50
2023/06/10 08:37:31;;;;;;;5.73;5.20;;;30.10;39.20;;;;;;5009897;28;20236;-48
2023/06/10 08:39:56;;;;;;;6.07;5.53;;;30.50;39.10;;;;;;5007292;28;20207;-52
2023/06/10 08:42:37;;;;;;;6.20;5.70;;;30.90;38.10;;;;;;5004448;28;20242;-53
2023/06/10 08:45:05;;;;;;;5.47;5.07;;;31.00;37.20;;;;;;5008713;28;20193;-52
2023/06/10 08:47:36;;;;;;;8.13;6.00;;;30.50;37.60;;;;;;5012791;28;20851;-49
2023/06/10 08:50:05;;;;;;;6.03;5.53;;;30.70;37.70;;;;;;5003801;28;20465;-52
2023/06/10 08:52:43;;;;;;;7.30;5.23;;;31.10;38.20;;;;;;5006790;28;20457;-49
2023/06/10 08:55:14;;;;;;;5.20;4.80;;;31.50;37.70;;;;;;5003751;28;20429;-51
2023/06/10 08:57:42;;;;;;;5.50;5.10;;;31.70;36.70;;;;;;5008569;28;20452;-51
2023/06/10 09:00:08;;;;;;;16.37;6.20;;;32.00;35.90;;;;;;5010184;28;20445;-53
2023/06/10 09:02:35;;;;;;;6.40;6.00;;;32.30;36.30;;;;;;5001576;28;20484;-52
2023/06/10 09:05:01;;;;;;;5.80;5.37;;;32.50;35.10;;;;;;5003185;28;20808;-54
2023/06/10 09:07:31;;;;;;;6.13;5.63;;;32.00;35.40;;;;;;5010349;28;20527;-53
2023/06/10 09:09:58;;;;;;;5.93;5.43;;;32.00;35.20;;;;;;5002588;28;20996;-51
2023/06/10 09:12:24;;;;;;;5.57;5.17;;;31.70;36.10;;;;;;5007798;28;20503;-54
2023/06/10 09:14:50;;;;;;;6.37;5.60;;;31.80;36.40;;;;;;5009444;28;20944;-52
2023/06/10 09:17:16;;;;;;;5.90;5.50;;;31.60;36.10;;;;;;5010865;28;20557;-52
2023/06/10 09:19:43;;;;;;;6.10;5.60;;;31.40;36.60;;;;;;5010745;28;20191;-52
2023/06/10 09:22:09;;;;;;;6.17;5.70;;;31.40;36.30;;;;;;5009564;28;20857;-49
2023/06/10 09:24:36;;;;;;;11.00;6.37;;;31.50;36.20;;;;;;5006124;28;20447;-52
2023/06/10 09:27:06;;;;;;;5.93;5.53;;;31.00;36.00;;;;;;5010470;28;20554;-51
2023/06/10 09:29:45;;;;;;;5.70;5.20;;;31.00;36.80;;;;;;5012482;28;20472;-51
2023/06/10 09:32:10;;;;;;;5.50;5.00;;;31.40;37.00;;;;;;5015040;28;20443;-50
2023/06/10 09:34:36;;;;;;;5.70;5.20;;;32.00;35.90;;;;;;5007256;28;20494;-52
2023/06/10 09:37:02;;;;;;;6.20;5.37;;;32.30;34.50;;;;;;5006620;28;20672;-51
2023/06/10 09:39:27;;;;;;;5.70;5.30;;;32.50;34.90;;;;;;5005535;28;20285;-53
2023/06/10 09:41:53;;;;;;;5.87;5.37;;;32.70;35.20;;;;;;5007454;28;20256;-51
2023/06/10 09:44:20;;;;;;;6.13;5.60;;;33.00;35.10;;;;;;5009573;28;20190;-50
2023/06/10 09:46:48;;;;;;;6.23;5.73;;;33.50;34.50;;;;;;5007395;28;20185;-51
2023/06/10 09:49:14;;;;;;;5.43;5.13;;;33.70;33.30;;;;;;5001099;28;20459;-49
2023/06/10 09:51:50;;;;;;;5.40;5.00;;;33.50;32.30;;;;;;5008111;28;20445;-53
2023/06/10 09:54:16;;;;;;;5.70;5.30;;;33.60;31.80;;;;;;5009592;28;20193;-49
2023/06/10 09:56:42;;;;;;;4.20;3.90;;;33.90;31.70;;;;;;5012585;28;20426;-51
2023/06/10 09:59:08;;;;;;;5.47;5.00;;;34.10;31.50;;;;;;5018710;28;20320;-52
2023/06/10 10:01:34;;;;;;;5.30;5.00;;;34.00;30.20;;;;;;5002250;28;20605;-49
2023/06/10 10:04:01;;;;;;;6.70;4.60;;;34.00;30.20;;;;;;5010021;28;20267;-51
2023/06/10 10:06:28;;;;;;;5.13;4.80;;;34.20;30.50;;;;;;5012196;28;20436;-52
2023/06/10 10:08:53;;;;;;;5.20;4.80;;;34.10;30.60;;;;;;5011446;28;20941;-50
2023/06/10 10:11:25;;;;;;;5.03;4.63;;;33.90;31.10;;;;;;5005356;28;20468;-51
2023/06/10 10:13:52;;;;;;;5.10;4.70;;;33.30;31.60;;;;;;5007484;28;20642;-50
2023/06/10 10:16:21;;;;;;;6.10;5.70;;;33.40;31.60;;;;;;5009760;28;20852;-51
2023/06/10 10:18:54;;;;;;;5.67;5.17;;;33.50;31.60;;;;;;5009705;28;20444;-51
2023/06/10 10:21:24;;;;;;;5.63;5.23;;;33.60;31.40;;;;;;5010102;28;20493;-51
2023/06/10 10:23:59;;;;;;;5.90;5.40;;;33.50;32.40;;;;;;5010856;28;20429;-48
2023/06/10 10:26:26;;;;;;;5.87;5.40;;;33.80;31.00;;;;;;5008971;28;20470;-51
2023/06/10 10:29:00;;;;;;;5.53;5.13;;;34.00;30.60;;;;;;5011433;28;20447;-53
2023/06/10 10:31:29;;;;;;;5.20;4.80;;;34.30;31.00;;;;;;5006635;28;20437;-48
2023/06/10 10:33:58;;;;;;;5.40;5.00;;;34.50;31.60;;;;;;5007178;28;20441;-47
2023/06/10 10:36:24;;;;;;;5.20;4.80;;;34.70;30.40;;;;;;5009305;28;20449;-51
2023/06/10 10:38:51;;;;;;;6.20;5.80;;;35.00;31.80;;;;;;5009522;28;20830;-48
2023/06/10 10:41:17;;;;;;;5.83;5.43;;;35.20;30.90;;;;;;5010026;28;20512;-51
2023/06/10 10:43:45;;;;;;;6.13;5.73;;;35.30;31.80;;;;;;5008444;28;20483;-50
2023/06/10 10:46:15;;;;;;;5.93;5.47;;;35.40;30.70;;;;;;5007973;28;20445;-49
2023/06/10 10:48:42;;;;;;;5.80;5.30;;;35.10;29.90;;;;;;5005514;28;20450;-51
2023/06/10 10:51:09;;;;;;;5.37;4.97;;;35.30;29.80;;;;;;5004335;28;20448;-51
2023/06/10 10:53:36;;;;;;;6.03;5.53;;;35.20;29.50;;;;;;5010799;28;20440;-51
2023/06/10 10:56:13;;;;;;;5.60;5.20;;;35.30;29.60;;;;;;5009659;28;20766;-52
2023/06/10 10:58:39;;;;;;;5.20;4.90;;;35.30;29.60;;;;;;5010295;28;20445;-51
2023/06/10 11:01:13;;;;;;;6.73;5.70;;;34.70;29.40;;;;;;5003929;28;20573;-48
2023/06/10 11:03:47;;;;;;;5.27;4.97;;;34.10;30.50;;;;;;5004897;28;20481;-50
2023/06/10 11:06:17;;;;;;;5.97;5.57;;;34.10;31.20;;;;;;5007985;28;20488;-52
2023/06/10 11:08:43;;;;;;;5.60;5.20;;;34.60;31.20;;;;;;5009615;28;20476;-52
2023/06/10 11:11:26;;;;;;;5.00;4.70;;;35.00;30.80;;;;;;4992134;28;20929;-52
2023/06/10 11:14:31;;;;;;;6.10;5.70;;;35.30;29.60;;;;;;4996149;28;20596;-48
2023/06/10 11:16:59;;;;;;;5.73;5.43;;;35.40;29.30;;;;;;4993128;28;20448;-48
2023/06/10 11:19:38;;;;;;;6.33;5.83;;;35.30;29.20;;;;;;5009984;28;20453;-50
2023/06/10 11:22:07;;;;;;;6.07;5.67;;;35.50;29.00;;;;;;5010591;28;20516;-47
2023/06/10 11:24:33;;;;;;;6.93;6.37;;;35.40;29.20;;;;;;5006708;28;20449;-48
2023/06/10 11:27:19;;;;;;;5.80;5.40;;;35.40;29.80;;;;;;5009672;28;20440;-48
2023/06/10 11:30:07;;;;;;;5.50;5.10;;;35.20;29.60;;;;;;5010550;28;20336;-46
2023/06/10 11:32:34;;;;;;;6.63;5.80;;;34.40;29.70;;;;;;5008766;28;20461;-51
2023/06/10 11:35:04;;;;;;;5.50;5.10;;;34.20;30.60;;;;;;5002675;28;20446;-49
2023/06/10 11:37:29;;;;;;;5.80;5.40;;;34.40;29.70;;;;;;4999941;28;20430;-49
2023/06/10 11:39:55;;;;;;;8.73;5.37;;;34.80;29.40;;;;;;4991969;28;20425;-46
2023/06/10 11:42:22;;;;;;;6.10;5.60;;;35.10;29.30;;;;;;5001441;28;20705;-49
2023/06/10 11:44:52;;;;;;;7.23;5.53;;;35.50;29.00;;;;;;5005449;28;20447;-51
2023/06/10 11:47:19;;;;;;;5.50;5.00;;;35.70;29.20;;;;;;5003857;28;20445;-46
2023/06/10 11:49:45;;;;;;;5.87;5.30;;;35.70;29.70;;;;;;5013530;28;20441;-50
2023/06/10 11:52:11;;;;;;;5.87;4.73;;;35.90;29.00;;;;;;5013349;28;20443;-48
2023/06/10 11:54:37;;;;;;;9.53;5.53;;;35.90;29.50;;;;;;5013135;28;20440;-46
2023/06/10 11:57:03;;;;;;;6.03;5.43;;;36.10;28.90;;;;;;5011805;28;20197;-48
2023/06/10 11:59:30;;;;;;;5.97;5.47;;;36.10;28.90;;;;;;5011583;28;20532;-47
2023/06/10 12:01:56;;;;;;;7.10;5.47;;;36.20;28.70;;;;;;5008368;28;20241;-47
2023/06/10 12:04:22;;;;;;;5.80;5.30;;;36.20;28.00;;;;;;5013259;28;20444;-47
2023/06/10 12:06:52;;;;;;;7.80;4.47;;;36.00;28.30;;;;;;5010655;28;20954;-48
2023/06/10 12:09:29;;;;;;;6.27;4.80;;;35.90;28.40;;;;;;5013131;28;20205;-47
2023/06/10 12:12:03;;;;;;;5.83;5.33;;;35.90;28.00;;;;;;5010824;28;20852;-51
2023/06/10 12:14:53;;;;;;;5.20;4.90;;;35.40;28.60;;;;;;5008370;28;20443;-49
2023/06/10 12:17:40;;;;;;;4.83;4.53;;;35.20;28.70;;;;;;5011274;28;20488;-46
2023/06/10 12:20:08;;;;;;;6.43;5.43;;;35.20;29.40;;;;;;5011630;28;20449;-49
2023/06/10 12:22:41;;;;;;;5.67;5.27;;;35.10;28.90;;;;;;5008076;28;20484;-46
2023/06/10 12:25:08;;;;;;;5.10;4.70;;;34.90;28.50;;;;;;5013392;28;20457;-49
2023/06/10 12:27:34;;;;;;;5.97;5.47;;;34.50;29.70;;;;;;5012044;28;20456;-48
2023/06/10 12:30:03;;;;;;;6.27;4.77;;;34.40;29.50;;;;;;5016640;28;20503;-47
2023/06/10 12:32:43;;;;;;;5.20;4.87;;;34.70;29.90;;;;;;5005019;28;20440;-49
2023/06/10 12:35:10;;;;;;;6.07;5.47;;;34.40;29.70;;;;;;4994857;28;20983;-47
2023/06/10 12:37:36;;;;;;;5.23;4.87;;;34.60;30.10;;;;;;5002378;28;20455;-46
2023/06/10 12:40:03;;;;;;;5.37;5.07;;;34.60;29.60;;;;;;4995973;28;20441;-47
2023/06/10 12:42:31;;;;;;;4.73;4.43;;;34.90;30.00;;;;;;4994637;28;20581;-47
2023/06/10 12:45:00;;;;;;;5.10;4.70;;;35.00;29.00;;;;;;4994691;28;20445;-48
2023/06/10 12:47:35;;;;;;;4.57;4.27;;;35.20;29.20;;;;;;5000801;28;20445;-49